createdAt,value
2018-05-19T00:00:53.276Z,87.07
2018-05-19T00:02:49.239Z,86.98
2018-05-19T00:03:49.240Z,86.88
2018-05-19T00:05:46.187Z,86.98
2018-05-19T00:06:45.206Z,86.88
2018-05-19T00:08:43.647Z,86.78
2018-05-19T00:09:43.139Z,86.88
2018-05-19T00:11:39.594Z,86.88
2018-05-19T00:12:39.097Z,87.45
2018-05-19T00:14:38.042Z,87.07
2018-05-19T00:15:37.254Z,87.26
2018-05-19T00:17:35.683Z,87.35
2018-05-19T00:18:35.317Z,87.35
2018-05-19T00:20:31.797Z,87.45
2018-05-19T00:21:31.785Z,87.64
2018-05-19T00:23:29.236Z,87.45
2018-05-19T00:24:29.210Z,87.40
2018-05-19T00:26:27.202Z,88.21
2018-05-19T00:27:27.134Z,88.36
2018-05-19T00:29:23.588Z,87.98
2018-05-19T00:30:23.585Z,88.74
2018-05-19T00:32:22.536Z,88.55
2018-05-19T00:33:21.199Z,88.84
2018-05-19T00:35:19.642Z,88.55
2018-05-19T00:36:19.146Z,88.84
2018-05-19T00:38:16.586Z,88.45
2018-05-19T00:39:15.064Z,88.84
2018-05-19T00:41:12.966Z,88.74
2018-05-19T00:42:13.011Z,89.12
2018-05-19T00:44:11.958Z,88.74
2018-05-19T00:45:11.073Z,89.12
2018-05-19T00:47:10.530Z,89.40
2018-05-19T00:48:09.197Z,89.12
2018-05-19T00:50:08.633Z,89.31
2018-05-19T00:51:07.109Z,89.12
2018-05-19T00:53:05.246Z,89.40
2018-05-19T00:54:05.236Z,89.60
2018-05-19T00:56:01.204Z,89.50
2018-05-19T00:57:01.676Z,89.79
2018-05-19T00:58:59.302Z,89.60
2018-05-19T00:59:59.289Z,89.50
2018-05-19T01:01:57.392Z,90.17
2018-05-19T01:02:57.399Z,89.60
2018-05-19T01:04:55.876Z,90.26
2018-05-19T01:05:55.314Z,90.64
2018-05-19T01:07:54.272Z,90.64
2018-05-19T01:08:54.264Z,90.64
2018-05-19T01:10:51.297Z,90.36
2018-05-19T01:11:51.296Z,90.45
2018-05-19T01:13:49.760Z,90.36
2018-05-19T01:14:49.250Z,90.26
2018-05-19T01:16:48.696Z,90.84
2018-05-19T01:17:47.179Z,90.64
2018-05-19T01:19:45.137Z,90.36
2018-05-19T01:20:45.124Z,90.64
2018-05-19T01:22:41.089Z,90.79
2018-05-19T01:23:41.054Z,90.84
2018-05-19T01:25:39.183Z,90.89
2018-05-19T01:26:39.171Z,90.60
2018-05-19T01:28:37.641Z,91.46
2018-05-19T01:29:37.278Z,91.17
2018-05-19T01:31:34.232Z,91.46
2018-05-19T01:32:33.196Z,91.36
2018-05-19T01:34:29.672Z,91.17
2018-05-19T01:35:29.134Z,91.55
2018-05-19T01:37:26.009Z,91.65
2018-05-19T01:38:26.099Z,91.94
2018-05-19T01:40:21.032Z,92.22
2018-05-19T01:41:21.030Z,92.13
2018-05-19T01:43:17.471Z,92.03
2018-05-19T01:44:16.965Z,92.13
2018-05-19T01:46:14.417Z,92.41
2018-05-19T01:47:12.914Z,92.41
2018-05-19T01:49:11.351Z,92.41
2018-05-19T01:50:10.840Z,92.41
2018-05-19T01:52:06.769Z,93.08
2018-05-19T01:53:06.800Z,93.08
2018-05-19T01:55:04.776Z,92.98
2018-05-19T01:56:04.727Z,93.17
2018-05-19T01:58:03.683Z,92.98
2018-05-19T01:59:02.665Z,93.17
2018-05-19T02:01:00.572Z,92.79
2018-05-19T02:02:00.573Z,93.32
2018-05-19T02:03:59.508Z,93.41
2018-05-19T02:05:00.531Z,93.22
2018-05-19T02:06:55.146Z,93.03
2018-05-19T02:07:54.599Z,92.84
2018-05-19T02:09:52.534Z,92.84
2018-05-19T02:10:52.567Z,92.94
2018-05-19T02:12:48.482Z,92.74
2018-05-19T02:13:48.504Z,92.84
2018-05-19T02:15:46.407Z,93.03
2018-05-19T02:16:46.418Z,93.41
2018-05-19T02:18:43.354Z,93.32
2018-05-19T02:19:42.343Z,93.32
2018-05-19T02:21:40.822Z,93.41
2018-05-19T02:22:40.812Z,93.41
2018-05-19T02:24:39.210Z,94.08
2018-05-19T02:25:38.183Z,94.17
2018-05-19T02:27:36.156Z,93.32
2018-05-19T02:28:36.640Z,94.17
2018-05-19T02:30:32.612Z,93.41
2018-05-19T02:31:32.093Z,93.32
2018-05-19T02:33:28.525Z,93.51
2018-05-19T02:34:28.033Z,94.17
2018-05-19T02:36:24.997Z,94.08
2018-05-19T02:37:23.993Z,93.89
2018-05-19T02:39:21.954Z,94.17
2018-05-19T02:40:21.910Z,94.08
2018-05-19T02:42:19.880Z,93.89
2018-05-19T02:43:19.854Z,94.27
2018-05-19T02:45:15.764Z,93.98
2018-05-19T02:46:15.776Z,93.98
2018-05-19T02:48:11.755Z,93.79
2018-05-19T02:49:12.726Z,93.79
2018-05-19T02:51:07.718Z,93.98
2018-05-19T02:52:07.634Z,93.79
2018-05-19T02:54:03.583Z,94.08
2018-05-19T02:55:03.574Z,94.37
2018-05-19T02:57:02.546Z,94.17
2018-05-19T02:58:02.024Z,94.93
2018-05-19T02:59:59.608Z,94.65
2018-05-19T03:00:59.639Z,94.60
2018-05-19T03:02:57.574Z,94.89
2018-05-19T03:03:57.601Z,94.70
2018-05-19T03:05:55.553Z,94.84
2018-05-19T03:06:55.531Z,94.70
2018-05-19T03:08:55.403Z,95.17
2018-05-19T03:09:54.474Z,94.89
2018-05-19T03:11:52.154Z,94.98
2018-05-19T03:12:51.575Z,94.79
2018-05-19T03:14:50.498Z,95.08
2018-05-19T03:15:49.469Z,95.08
2018-05-19T03:17:47.399Z,95.27
2018-05-19T03:18:47.411Z,95.27
2018-05-19T03:20:43.356Z,95.27
2018-05-19T03:21:43.869Z,95.46
2018-05-19T03:23:39.775Z,95.65
2018-05-19T03:24:40.776Z,95.27
2018-05-19T03:26:37.382Z,94.98
2018-05-19T03:27:38.237Z,94.98
2018-05-19T03:29:33.395Z,95.51
2018-05-19T03:30:34.266Z,95.46
2018-05-19T03:32:32.278Z,95.51
2018-05-19T03:33:31.413Z,95.08
2018-05-19T03:35:27.378Z,95.36
2018-05-19T03:36:27.350Z,95.46
2018-05-19T03:38:25.809Z,95.46
2018-05-19T03:39:26.234Z,95.46
2018-05-19T03:41:23.763Z,95.36
2018-05-19T03:42:23.381Z,94.79
2018-05-19T03:44:21.805Z,95.46
2018-05-19T03:45:21.318Z,95.46
2018-05-19T03:47:19.266Z,94.60
2018-05-19T03:48:19.227Z,95.56
2018-05-19T03:50:18.194Z,95.27
2018-05-19T03:51:17.170Z,95.46
2018-05-19T03:53:15.126Z,95.46
2018-05-19T03:54:16.054Z,95.84
2018-05-19T03:56:14.061Z,96.03
2018-05-19T03:57:14.092Z,95.84
2018-05-19T03:59:11.376Z,96.41
2018-05-19T04:00:12.079Z,96.03
2018-05-19T04:02:07.783Z,96.60
2018-05-19T04:03:07.949Z,95.94
2018-05-19T04:05:05.199Z,96.70
2018-05-19T04:06:05.213Z,96.41
2018-05-19T04:08:01.155Z,96.03
2018-05-19T04:09:00.661Z,96.22
2018-05-19T04:10:56.127Z,96.22
2018-05-19T04:11:56.055Z,96.03
2018-05-19T04:13:52.013Z,96.31
2018-05-19T04:14:51.994Z,96.41
2018-05-19T04:16:47.969Z,96.41
2018-05-19T04:17:47.939Z,96.41
2018-05-19T04:19:43.914Z,95.65
2018-05-19T04:20:43.859Z,95.75
2018-05-19T04:22:42.795Z,95.84
2018-05-19T04:23:43.320Z,95.75
2018-05-19T04:25:39.724Z,95.65
2018-05-19T04:26:39.725Z,95.75
2018-05-19T04:28:35.674Z,95.65
2018-05-19T04:29:35.664Z,95.46
2018-05-19T04:31:31.606Z,95.75
2018-05-19T04:32:31.569Z,95.56
2018-05-19T04:34:27.480Z,95.36
2018-05-19T04:35:27.484Z,95.65
2018-05-19T04:37:26.947Z,95.36
2018-05-19T04:38:25.404Z,95.32
2018-05-19T04:40:21.377Z,95.51
2018-05-19T04:41:21.856Z,95.32
2018-05-19T04:43:17.312Z,94.93
2018-05-19T04:44:17.808Z,95.12
2018-05-19T04:46:13.258Z,95.03
2018-05-19T04:47:13.207Z,95.22
2018-05-19T04:49:09.195Z,94.37
2018-05-19T04:50:09.709Z,94.93
2018-05-19T04:52:08.602Z,94.84
2018-05-19T04:53:07.272Z,94.74
2018-05-19T04:55:05.726Z,94.65
2018-05-19T04:56:05.227Z,94.65
2018-05-19T04:58:03.213Z,94.56
2018-05-19T04:59:03.196Z,94.74
2018-05-19T05:01:01.633Z,94.08
2018-05-19T05:02:01.102Z,94.37
2018-05-19T05:03:59.239Z,94.27
2018-05-19T05:05:00.064Z,94.17
2018-05-19T05:06:58.689Z,94.51
2018-05-19T05:07:57.476Z,93.84
2018-05-19T05:09:53.442Z,94.22
2018-05-19T05:10:53.401Z,93.27
2018-05-19T05:12:49.889Z,93.46
2018-05-19T05:13:49.886Z,93.46
2018-05-19T05:15:47.820Z,93.55
2018-05-19T05:16:47.451Z,93.37
2018-05-19T05:18:43.409Z,93.08
2018-05-19T05:19:43.399Z,93.17
2018-05-19T05:21:39.313Z,92.79
2018-05-19T05:22:39.280Z,92.79
2018-05-19T05:24:38.248Z,93.17
2018-05-19T05:25:37.412Z,92.60
2018-05-19T05:27:33.838Z,92.98
2018-05-19T05:28:33.342Z,92.89
2018-05-19T05:30:29.286Z,92.93
2018-05-19T05:31:29.819Z,92.65
2018-05-19T05:33:25.265Z,92.74
2018-05-19T05:34:25.226Z,92.65
2018-05-19T05:36:21.215Z,92.74
2018-05-19T05:37:21.696Z,92.65
2018-05-19T05:39:22.638Z,92.65
2018-05-19T05:40:21.606Z,92.93
2018-05-19T05:42:20.082Z,92.17
2018-05-19T05:43:19.882Z,91.79
2018-05-19T05:45:15.818Z,92.36
2018-05-19T05:46:15.794Z,91.79
2018-05-19T05:48:11.760Z,91.69
2018-05-19T05:49:11.741Z,91.31
2018-05-19T05:51:07.719Z,91.41
2018-05-19T05:54:07.620Z,90.88
2018-05-19T05:55:05.794Z,90.59
2018-05-19T05:57:02.728Z,90.79
2018-05-19T05:58:02.239Z,89.83
2018-05-19T05:59:59.169Z,89.83
2018-05-19T06:00:58.174Z,90.03
2018-05-19T06:02:54.100Z,89.45
2018-05-19T06:03:54.119Z,89.26
2018-05-19T06:05:52.533Z,89.88
2018-05-19T06:06:51.765Z,89.50
2018-05-19T06:08:50.222Z,88.98
2018-05-19T06:09:49.707Z,88.35
2018-05-19T06:11:45.639Z,89.02
2018-05-19T06:12:45.651Z,88.16
2018-05-19T06:14:41.619Z,88.07
2018-05-19T06:15:41.589Z,88.54
2018-05-19T06:17:39.549Z,87.49
2018-05-19T06:18:39.611Z,86.73
2018-05-19T06:20:35.506Z,87.02
2018-05-19T06:21:35.491Z,86.92
2018-05-19T06:23:32.982Z,87.49
2018-05-19T06:24:31.424Z,87.02
2018-05-19T06:26:29.562Z,86.73
2018-05-19T06:27:30.395Z,87.11
2018-05-19T06:29:27.510Z,86.73
2018-05-19T06:30:27.476Z,87.02
2018-05-19T06:32:26.430Z,86.25
2018-05-19T06:33:25.936Z,86.06
2018-05-19T06:35:21.870Z,86.49
2018-05-19T06:36:21.358Z,86.01
2018-05-19T06:38:18.339Z,84.77
2018-05-19T06:39:17.300Z,84.14
2018-05-19T06:41:18.765Z,84.62
2018-05-19T06:42:17.714Z,84.23
2018-05-19T06:44:16.597Z,83.09
2018-05-19T06:45:15.658Z,83.86
2018-05-19T06:47:15.049Z,83.91
2018-05-19T06:48:13.891Z,83.81
2018-05-19T06:50:11.934Z,83.91
2018-05-19T06:51:11.915Z,84.20
2018-05-19T06:53:08.878Z,84.14
2018-05-19T06:54:09.306Z,83.86
2018-05-19T06:56:04.875Z,83.57
2018-05-19T06:57:03.887Z,83.76
2018-05-19T06:59:02.279Z,83.57
2018-05-19T07:00:02.786Z,83.76
2018-05-19T07:02:00.065Z,83.00
2018-05-19T07:03:00.906Z,83.28
2018-05-19T07:04:58.506Z,83.38
2018-05-19T07:05:58.499Z,83.38
2018-05-19T07:07:53.999Z,83.28
2018-05-19T07:08:53.953Z,83.18
2018-05-19T07:10:52.416Z,82.71
2018-05-19T07:11:51.854Z,82.52
2018-05-19T07:13:49.795Z,82.81
2018-05-19T07:14:50.310Z,83.09
2018-05-19T07:16:46.270Z,83.28
2018-05-19T07:17:45.778Z,83.38
2018-05-19T07:19:44.713Z,82.32
2018-05-19T07:20:43.862Z,82.81
2018-05-19T07:22:41.825Z,82.23
2018-05-19T07:23:41.802Z,81.79
2018-05-19T07:25:42.265Z,81.18
2018-05-19T07:26:42.269Z,81.09
2018-05-19T07:28:38.242Z,81.95
2018-05-19T07:29:38.226Z,81.89
2018-05-19T07:31:36.673Z,81.32
2018-05-19T07:32:36.136Z,80.07
2018-05-19T07:34:35.642Z,79.73
2018-05-19T07:35:34.298Z,79.79
2018-05-19T07:37:33.706Z,80.11
2018-05-19T07:38:32.364Z,78.97
2018-05-19T07:40:31.336Z,79.31
2018-05-19T07:41:31.846Z,79.16
2018-05-19T07:43:28.460Z,77.92
2018-05-19T07:44:28.474Z,77.92
2018-05-19T07:46:24.430Z,77.15
2018-05-19T07:47:24.421Z,77.44
2018-05-19T07:49:24.399Z,77.19
2018-05-19T07:50:22.366Z,77.09
2018-05-19T07:52:20.824Z,76.23
2018-05-19T07:53:20.835Z,76.42
2018-05-19T07:55:18.304Z,77.48
2018-05-19T07:56:19.269Z,76.14
2018-05-19T07:58:16.325Z,78.01
2018-05-19T07:59:16.255Z,78.11
2018-05-19T08:01:12.706Z,75.95
2018-05-19T08:02:12.159Z,76.57
2018-05-19T08:04:09.153Z,77.00
2018-05-19T08:05:08.117Z,75.47
2018-05-19T08:07:04.126Z,75.37
2018-05-19T08:08:04.048Z,75.18
2018-05-19T08:10:00.024Z,75.85
2018-05-19T08:10:59.985Z,75.27
2018-05-19T08:12:58.464Z,74.90
2018-05-19T08:13:57.936Z,74.61
2018-05-19T08:15:56.901Z,74.90
2018-05-19T08:16:56.831Z,74.51
2018-05-19T08:18:53.991Z,74.61
2018-05-19T08:19:54.004Z,75.09
2018-05-19T08:21:51.440Z,74.99
2018-05-19T08:22:49.945Z,74.61
2018-05-19T08:24:46.483Z,74.04
2018-05-19T08:25:45.913Z,73.08
2018-05-19T08:27:41.835Z,73.65
2018-05-19T08:28:41.876Z,73.84
2018-05-19T08:30:40.744Z,73.79
2018-05-19T08:31:39.814Z,73.97
2018-05-19T08:33:39.282Z,71.58
2018-05-19T08:34:37.972Z,70.91
2018-05-19T08:36:34.934Z,69.80
2018-05-19T08:37:34.745Z,70.09
2018-05-19T08:39:34.700Z,68.74
2018-05-19T08:40:34.729Z,69.03
2018-05-19T08:42:30.363Z,69.70
2018-05-19T08:43:29.859Z,70.28
2018-05-19T08:45:26.326Z,69.32
2018-05-19T08:46:25.795Z,68.46
2018-05-19T08:48:31.558Z,70.56
2018-05-19T08:49:31.649Z,69.99
2018-05-19T08:51:24.941Z,69.42
2018-05-19T08:52:24.417Z,70.05
2018-05-19T08:54:22.875Z,69.86
2018-05-19T08:55:22.872Z,70.43
2018-05-19T08:57:18.810Z,70.43
2018-05-19T08:58:18.870Z,70.34
2018-05-19T09:00:17.840Z,70.53
2018-05-19T09:01:17.200Z,69.76
2018-05-19T09:03:12.761Z,69.99
2018-05-19T09:04:13.770Z,69.99
2018-05-19T09:06:11.741Z,68.94
2018-05-19T09:07:11.236Z,68.46
2018-05-19T09:09:08.841Z,67.98
2018-05-19T09:10:08.503Z,67.79
2018-05-19T09:12:05.469Z,67.60
2018-05-19T09:13:05.442Z,67.11
2018-05-19T09:15:03.379Z,66.77
2018-05-19T09:16:03.413Z,66.09
2018-05-19T09:18:01.841Z,65.05
2018-05-19T09:19:01.322Z,65.42
2018-05-19T09:20:59.443Z,66.25
2018-05-19T09:21:59.421Z,64.63
2018-05-19T09:23:55.900Z,64.25
2018-05-19T09:24:55.889Z,65.58
2018-05-19T09:26:54.835Z,65.88
2018-05-19T09:27:53.338Z,67.02
2018-05-19T09:29:49.380Z,66.64
2018-05-19T09:30:49.811Z,67.50
2018-05-19T09:32:45.233Z,66.83
2018-05-19T09:35:41.734Z,64.53
2018-05-19T09:36:41.171Z,64.63
2018-05-19T09:38:37.155Z,64.25
2018-05-19T09:39:37.631Z,63.96
2018-05-19T09:41:35.043Z,64.09
2018-05-19T09:42:36.514Z,63.89
2018-05-19T09:44:33.024Z,61.79
2018-05-19T09:45:34.516Z,61.40
2018-05-19T09:47:29.500Z,60.73
2018-05-19T09:48:29.484Z,60.54
2018-05-19T09:50:27.066Z,59.52
2018-05-19T09:51:27.097Z,59.52
2018-05-19T09:53:23.961Z,62.01
2018-05-19T09:54:23.044Z,62.39
2018-05-19T09:56:21.007Z,61.53
2018-05-19T09:57:21.024Z,61.63
2018-05-19T09:59:19.049Z,61.91
2018-05-19T10:00:19.037Z,60.96
2018-05-19T10:02:17.896Z,60.96
2018-05-19T10:03:17.087Z,61.24
2018-05-19T10:05:16.594Z,62.07
2018-05-19T10:06:15.519Z,62.93
2018-05-19T10:08:13.454Z,63.89
2018-05-19T10:09:12.983Z,63.60
2018-05-19T10:11:11.064Z,63.64
2018-05-19T10:12:11.922Z,62.77
2018-05-19T10:14:08.993Z,62.17
2018-05-19T10:15:09.513Z,62.87
2018-05-19T10:17:07.519Z,61.91
2018-05-19T10:18:06.932Z,60.96
2018-05-19T10:20:04.393Z,61.53
2018-05-19T10:21:03.386Z,61.60
2018-05-19T10:23:01.123Z,62.17
2018-05-19T10:24:01.014Z,62.17
2018-05-19T10:26:00.529Z,62.74
2018-05-19T10:27:01.076Z,61.69
2018-05-19T10:28:55.635Z,61.02
2018-05-19T10:29:56.138Z,59.77
2018-05-19T10:31:53.099Z,59.48
2018-05-19T10:32:52.090Z,59.01
2018-05-19T10:34:49.632Z,57.89
2018-05-19T10:35:50.114Z,57.89
2018-05-19T10:37:45.256Z,56.00
2018-05-19T10:38:45.227Z,55.62
2018-05-19T10:40:41.209Z,54.56
2018-05-19T10:41:41.698Z,54.46
2018-05-19T10:43:37.154Z,55.90
2018-05-19T10:44:37.089Z,55.71
2018-05-19T10:46:42.087Z,56.09
2018-05-19T10:47:40.719Z,56.67
2018-05-19T10:49:36.647Z,56.76
2018-05-19T10:50:37.188Z,56.86
2018-05-19T10:52:33.753Z,56.00
2018-05-19T10:53:33.119Z,56.48
2018-05-19T10:55:30.084Z,56.96
2018-05-19T10:56:29.540Z,57.34
2018-05-19T10:58:28.505Z,56.96
2018-05-19T10:59:27.496Z,57.34
2018-05-19T11:01:23.023Z,56.38
2018-05-19T11:02:21.980Z,56.09
2018-05-19T11:04:19.422Z,56.02
2018-05-19T11:05:17.912Z,55.64
2018-05-19T11:07:15.877Z,56.00
2018-05-19T11:08:15.867Z,55.62
2018-05-19T11:10:12.321Z,55.04
2018-05-19T11:11:12.823Z,55.23
2018-05-19T11:13:07.827Z,55.42
2018-05-19T11:14:07.789Z,55.23
2018-05-19T11:16:04.250Z,54.39
2018-05-19T11:17:03.957Z,54.39
2018-05-19T11:18:59.926Z,53.36
2018-05-19T11:19:59.914Z,52.86
2018-05-19T11:21:55.917Z,52.60
2018-05-19T11:22:56.470Z,52.89
2018-05-19T11:24:51.825Z,51.54
2018-05-19T11:25:52.334Z,51.95
2018-05-19T11:27:50.714Z,50.90
2018-05-19T11:28:49.843Z,49.26
2018-05-19T11:30:45.739Z,48.97
2018-05-19T11:31:45.751Z,50.03
2018-05-19T11:33:40.209Z,49.17
2018-05-19T11:34:39.698Z,49.17
2018-05-19T11:36:35.165Z,47.72
2018-05-19T11:37:35.146Z,47.92
2018-05-19T11:39:32.110Z,50.39
2018-05-19T11:41:47.058Z,50.78
2018-05-19T11:42:47.087Z,51.09
2018-05-19T11:44:43.531Z,51.18
2018-05-19T11:45:43.538Z,51.06
2018-05-19T11:47:38.970Z,51.45
2018-05-19T11:48:39.128Z,51.25
2018-05-19T11:50:34.993Z,52.72
2018-05-19T11:51:35.945Z,52.12
2018-05-19T11:53:31.930Z,53.46
2018-05-19T11:54:31.420Z,53.75
2018-05-19T11:56:30.863Z,52.40
2018-05-19T11:57:30.378Z,52.40
2018-05-19T11:59:26.745Z,53.44
2018-05-19T12:00:25.834Z,53.53
2018-05-19T12:02:21.791Z,52.60
2018-05-19T12:03:21.793Z,52.69
2018-05-19T12:05:21.182Z,51.93
2018-05-19T12:06:19.749Z,51.76
2018-05-19T12:08:20.400Z,50.42
2018-05-19T12:09:20.538Z,50.90
2018-05-19T12:11:21.418Z,50.90
2018-05-19T12:12:20.937Z,50.78
2018-05-19T12:14:21.347Z,50.61
2018-05-19T12:15:22.245Z,50.61
2018-05-19T12:17:19.408Z,49.96
2018-05-19T12:18:19.421Z,50.15
2018-05-19T12:20:17.373Z,49.00
2018-05-19T12:21:17.891Z,49.19
2018-05-19T12:23:14.356Z,50.70
2018-05-19T12:24:13.833Z,50.80
2018-05-19T12:26:11.272Z,50.80
2018-05-19T12:27:11.824Z,51.28
2018-05-19T12:29:11.730Z,52.40
2018-05-19T12:30:11.743Z,52.60
2018-05-19T12:32:12.746Z,53.85
2018-05-19T12:33:12.226Z,53.08
2018-05-19T12:35:10.162Z,52.38
2018-05-19T12:36:10.165Z,52.86
2018-05-19T12:38:08.336Z,52.31
2018-05-19T12:39:08.330Z,51.83
2018-05-19T12:41:06.244Z,52.76
2018-05-19T12:42:06.240Z,54.01
2018-05-19T12:44:02.228Z,54.49
2018-05-19T12:45:02.709Z,54.11
2018-05-19T12:47:03.672Z,54.49
2018-05-19T12:48:03.652Z,55.93
2018-05-19T12:50:01.667Z,56.22
2018-05-19T12:51:01.697Z,54.68
2018-05-19T12:52:59.298Z,55.16
2018-05-19T12:53:58.769Z,54.39
2018-05-19T12:55:54.714Z,54.49
2018-05-19T12:56:54.733Z,54.08
2018-05-19T12:58:51.389Z,53.60
2018-05-19T12:59:50.709Z,54.15
2018-05-19T13:01:46.718Z,55.90
2018-05-19T13:02:46.640Z,56.00
2018-05-19T13:04:45.168Z,55.33
2018-05-19T13:05:45.525Z,55.23
2018-05-19T13:07:41.733Z,54.21
2018-05-19T13:08:40.748Z,54.39
2018-05-19T13:10:40.098Z,53.72
2018-05-19T13:11:38.604Z,52.95
2018-05-19T13:13:35.554Z,53.46
2018-05-19T13:14:34.603Z,51.93
2018-05-19T13:16:33.173Z,50.39
2018-05-19T13:17:42.663Z,50.96
2018-05-19T13:19:28.532Z,50.13
2018-05-19T13:20:30.012Z,49.36
2018-05-19T13:22:24.405Z,48.88
2018-05-19T13:23:25.919Z,48.97
2018-05-19T13:25:20.430Z,50.99
2018-05-19T13:26:21.387Z,51.95
2018-05-19T13:28:17.414Z,50.70
2018-05-19T13:29:17.416Z,50.87
2018-05-19T13:31:13.403Z,51.16
2018-05-19T13:32:13.377Z,51.35
2018-05-19T13:34:09.837Z,52.50
2018-05-19T13:35:09.861Z,52.40
2018-05-19T13:37:05.285Z,51.54
2018-05-19T13:38:05.775Z,51.35
2018-05-19T13:40:02.720Z,51.06
2018-05-19T13:41:02.145Z,51.45
2018-05-19T13:42:59.357Z,50.10
2018-05-19T13:43:59.359Z,50.01
2018-05-19T13:45:58.317Z,50.10
2018-05-19T13:46:58.370Z,49.82
2018-05-19T13:48:57.398Z,51.16
2018-05-19T13:49:56.471Z,50.49
2018-05-19T13:51:51.618Z,50.20
2018-05-19T13:52:52.104Z,50.01
2018-05-19T13:54:51.045Z,49.74
2018-05-19T13:55:49.749Z,49.62
2018-05-19T13:57:48.721Z,49.84
2018-05-19T13:58:48.684Z,48.97
2018-05-19T14:00:44.677Z,48.97
2018-05-19T14:01:43.607Z,49.84
2018-05-19T14:03:40.079Z,49.87
2018-05-19T14:04:40.073Z,50.05
2018-05-19T14:06:36.555Z,48.52
2018-05-19T14:07:35.574Z,49.07
2018-05-19T14:09:34.004Z,50.90
2018-05-19T14:10:34.007Z,51.09
2018-05-19T14:12:32.030Z,50.99
2018-05-19T14:13:31.608Z,51.37
2018-05-19T14:15:39.204Z,51.09
2018-05-19T14:16:40.103Z,50.90
2018-05-19T14:18:35.303Z,50.42
2018-05-19T14:19:36.100Z,50.13
2018-05-19T14:21:29.953Z,49.93
2018-05-19T14:22:29.858Z,50.01
2018-05-19T14:24:30.370Z,51.64
2018-05-19T14:25:31.819Z,51.25
2018-05-19T14:27:32.271Z,50.80
2018-05-19T14:28:31.615Z,50.99
2018-05-19T14:30:28.551Z,50.13
2018-05-19T14:31:28.547Z,50.61
2018-05-19T14:33:26.511Z,48.88
2018-05-19T14:34:26.496Z,48.88
2018-05-19T14:36:24.458Z,49.96
2018-05-19T14:37:24.467Z,48.71
2018-05-19T14:39:22.240Z,48.90
2018-05-19T14:40:20.470Z,49.00
2018-05-19T14:42:16.378Z,49.57
2018-05-19T14:43:16.411Z,49.36
2018-05-19T14:45:12.379Z,49.74
2018-05-19T14:46:12.349Z,49.84
2018-05-19T14:48:09.808Z,49.10
2018-05-19T14:49:08.281Z,49.00
2018-05-19T14:51:05.223Z,48.81
2018-05-19T14:52:05.759Z,50.03
2018-05-19T14:54:01.216Z,49.19
2018-05-19T14:55:01.280Z,48.81
2018-05-19T14:56:57.633Z,51.09
2018-05-19T14:57:58.168Z,49.65
2018-05-19T14:59:55.615Z,51.09
2018-05-19T15:00:56.144Z,51.18
2018-05-19T15:02:53.394Z,50.25
2018-05-19T15:05:10.324Z,49.67
2018-05-19T15:06:11.025Z,49.48
2018-05-19T15:08:08.288Z,48.90
2018-05-19T15:09:08.306Z,49.00
2018-05-19T15:11:05.409Z,49.00
2018-05-19T15:12:05.935Z,48.49
2018-05-19T15:14:03.384Z,49.17
2018-05-19T15:15:03.388Z,48.97
2018-05-19T15:17:14.020Z,49.65
2018-05-19T15:18:14.005Z,49.36
2018-05-19T15:20:13.898Z,50.70
2018-05-19T15:21:12.235Z,50.03
2018-05-19T15:23:10.241Z,49.46
2018-05-19T15:24:10.195Z,49.36
2018-05-19T15:26:08.680Z,49.17
2018-05-19T15:27:08.193Z,49.55
2018-05-19T15:29:04.177Z,50.03
2018-05-19T15:30:03.900Z,50.32
2018-05-19T15:32:00.298Z,49.65
2018-05-19T15:33:00.886Z,49.07
2018-05-19T15:34:57.950Z,48.88
2018-05-19T15:35:57.944Z,48.69
2018-05-19T15:37:54.406Z,49.93
2018-05-19T15:38:54.278Z,50.15
2018-05-19T15:40:50.361Z,49.74
2018-05-19T15:41:50.796Z,49.93
2018-05-19T15:43:45.807Z,49.57
2018-05-19T15:44:46.309Z,48.79
2018-05-19T15:47:57.409Z,48.97
2018-05-19T15:48:30.864Z,49.87
2018-05-19T15:50:32.374Z,50.25
2018-05-19T15:52:49.929Z,50.44
2018-05-19T15:53:48.248Z,49.57
2018-05-19T15:55:52.167Z,50.15
2018-05-19T15:56:52.208Z,48.90
2018-05-19T15:58:49.531Z,49.57
2018-05-19T15:59:48.238Z,49.57
2018-05-19T16:01:47.527Z,49.57
2018-05-19T16:02:46.136Z,49.84
2018-05-19T16:04:42.102Z,49.74
2018-05-19T16:05:42.101Z,49.26
2018-05-19T16:07:41.588Z,49.84
2018-05-19T16:08:40.160Z,50.61
2018-05-19T16:10:41.035Z,50.34
2018-05-19T16:11:40.525Z,50.05
2018-05-19T16:13:36.470Z,49.07
2018-05-19T16:14:36.983Z,49.29
2018-05-19T16:16:33.459Z,49.67
2018-05-19T16:17:32.476Z,49.57
2018-05-19T16:19:31.929Z,49.84
2018-05-19T16:20:32.396Z,49.84
2018-05-19T16:22:32.300Z,49.93
2018-05-19T16:23:32.521Z,49.93
2018-05-19T16:25:32.019Z,50.13
2018-05-19T16:26:31.631Z,50.13
2018-05-19T16:28:31.977Z,50.13
2018-05-19T16:29:31.918Z,50.80
2018-05-19T16:31:29.378Z,50.25
2018-05-19T16:32:27.869Z,49.93
2018-05-19T16:34:25.856Z,49.36
2018-05-19T16:35:25.832Z,49.74
2018-05-19T16:37:23.755Z,49.36
2018-05-19T16:38:23.762Z,49.93
2018-05-19T16:40:19.740Z,49.93
2018-05-19T16:41:19.866Z,50.03
2018-05-19T16:43:19.191Z,50.34
2018-05-19T16:44:17.358Z,49.19
2018-05-19T16:46:17.972Z,49.38
2018-05-19T16:47:18.067Z,48.81
2018-05-19T16:49:14.278Z,48.83
2018-05-19T16:50:13.785Z,49.02
2018-05-19T16:52:12.221Z,48.74
2018-05-19T16:53:12.261Z,48.45
2018-05-19T16:55:08.178Z,47.77
2018-05-19T16:58:13.172Z,48.52
2018-05-19T16:59:09.749Z,49.02
2018-05-19T17:01:10.193Z,48.25
2018-05-19T17:02:10.150Z,48.45
2018-05-19T17:04:06.128Z,48.25
2018-05-19T17:05:06.164Z,48.25
2018-05-19T17:07:02.065Z,48.74
2018-05-19T17:08:02.062Z,48.81
2018-05-19T17:09:57.030Z,49.87
2018-05-19T17:10:56.512Z,49.38
2018-05-19T17:12:52.484Z,49.38
2018-05-19T17:13:53.407Z,49.67
2018-05-19T17:15:48.419Z,50.23
2018-05-19T17:16:48.445Z,50.13
2018-05-19T17:18:45.421Z,49.36
2018-05-19T17:19:44.394Z,50.13
2018-05-19T17:21:40.897Z,51.09
2018-05-19T17:22:40.359Z,50.70
2018-05-19T17:24:36.548Z,50.13
2018-05-19T17:25:36.533Z,50.23
2018-05-19T17:27:38.560Z,50.13
2018-05-19T17:28:29.982Z,50.42
2018-05-19T17:30:25.956Z,51.67
2018-05-19T17:31:25.965Z,50.80
2018-05-19T17:33:21.950Z,51.06
2018-05-19T17:34:21.988Z,50.61
2018-05-19T17:36:18.378Z,50.42
2018-05-19T17:37:17.896Z,50.61
2018-05-19T17:39:14.401Z,51.76
2018-05-19T17:40:13.851Z,50.80
2018-05-19T17:42:10.306Z,50.51
2018-05-19T17:43:09.781Z,49.82
2018-05-19T17:45:07.782Z,50.68
2018-05-19T17:46:07.823Z,50.10
2018-05-19T17:48:04.714Z,50.13
2018-05-19T17:49:03.710Z,50.96
2018-05-19T17:50:59.711Z,50.01
2018-05-19T17:51:59.652Z,50.32
2018-05-19T17:53:55.589Z,50.68
2018-05-19T17:54:55.610Z,50.68
2018-05-19T17:56:54.051Z,50.68
2018-05-19T17:57:53.527Z,50.78
2018-05-19T17:59:50.486Z,51.73
2018-05-19T18:00:50.487Z,51.45
2018-05-19T18:02:44.952Z,52.40
2018-05-19T18:03:43.955Z,52.60
2018-05-19T18:05:39.954Z,52.69
2018-05-19T18:06:39.933Z,53.17
2018-05-19T18:08:36.424Z,52.69
2018-05-19T18:09:35.983Z,52.40
2018-05-19T18:11:31.939Z,52.57
2018-05-19T18:12:31.908Z,52.67
2018-05-19T18:14:31.400Z,52.57
2018-05-19T18:15:30.053Z,53.05
2018-05-19T18:17:30.513Z,53.15
2018-05-19T18:18:30.518Z,53.44
2018-05-19T18:20:27.001Z,53.05
2018-05-19T18:21:26.446Z,53.53
2018-05-19T18:23:23.406Z,53.82
2018-05-19T18:24:22.668Z,53.72
2018-05-19T18:26:17.198Z,53.72
2018-05-19T18:27:17.193Z,54.11
2018-05-19T18:29:13.199Z,54.39
2018-05-19T18:30:13.145Z,54.49
2018-05-19T18:32:09.141Z,54.11
2018-05-19T18:33:09.123Z,54.01
2018-05-19T18:35:07.103Z,54.21
2018-05-19T18:36:08.086Z,53.99
2018-05-19T18:38:05.041Z,54.46
2018-05-19T18:39:05.033Z,55.23
2018-05-19T18:41:03.020Z,54.27
2018-05-19T18:42:03.509Z,54.75
2018-05-19T18:44:03.893Z,55.71
2018-05-19T18:44:59.779Z,56.48
2018-05-19T18:46:53.235Z,58.62
2018-05-19T18:47:53.764Z,56.98
2018-05-19T18:49:49.201Z,56.41
2018-05-19T18:50:49.185Z,55.93
2018-05-19T18:52:47.156Z,57.95
2018-05-19T18:53:46.017Z,56.22
2018-05-19T18:55:41.940Z,55.80
2018-05-19T18:56:41.941Z,56.67
2018-05-19T18:58:40.937Z,56.86
2018-05-19T18:59:40.103Z,56.38
2018-05-19T19:01:33.613Z,56.96
2018-05-19T19:02:35.015Z,56.38
2018-05-19T19:04:32.507Z,56.96
2018-05-19T19:05:30.430Z,58.20
2018-05-19T19:07:28.971Z,57.15
2018-05-19T19:08:28.446Z,57.15